sensor_id;sensor_type;location;lat;lon;timestamp;pressure;altitude;pressure_sealevel;temperature;humidity
35878;BME280;21982;49.804;24.072;2023-09-19T00:01:39;97131.53;;;17.50;72.96
35878;BME280;21982;49.804;24.072;2023-09-19T00:04:04;97124.78;;;17.48;72.90
35878;BME280;21982;49.804;24.072;2023-09-19T00:06:35;97115.50;;;17.38;72.76
35878;BME280;21982;49.804;24.072;2023-09-19T00:09:00;97120.97;;;17.43;72.80
35878;BME280;21982;49.804;24.072;2023-09-19T00:11:26;97131.91;;;17.42;72.75
35878;BME280;21982;49.804;24.072;2023-09-19T00:13:52;97073.91;;;17.07;72.85
35878;BME280;21982;49.804;24.072;2023-09-19T00:16:17;97080.53;;;17.05;72.74
35878;BME280;21982;49.804;24.072;2023-09-19T00:18:44;97107.16;;;17.23;72.90
35878;BME280;21982;49.804;24.072;2023-09-19T00:21:09;97117.97;;;17.28;72.88
35878;BME280;21982;49.804;24.072;2023-09-19T00:23:35;97112.03;;;17.26;72.98
35878;BME280;21982;49.804;24.072;2023-09-19T00:26:01;97117.88;;;17.23;72.91
35878;BME280;21982;49.804;24.072;2023-09-19T00:28:28;97113.56;;;17.22;73.01
35878;BME280;21982;49.804;24.072;2023-09-19T00:30:55;97066.47;;;16.86;73.15
35878;BME280;21982;49.804;24.072;2023-09-19T00:33:21;97120.06;;;17.15;72.97
35878;BME280;21982;49.804;24.072;2023-09-19T00:35:53;97109.13;;;17.16;72.89
35878;BME280;21982;49.804;24.072;2023-09-19T00:38:20;97111.69;;;17.11;73.11
35878;BME280;21982;49.804;24.072;2023-09-19T00:40:52;97104.13;;;17.08;73.12
35878;BME280;21982;49.804;24.072;2023-09-19T00:43:18;97043.22;;;16.75;73.10
35878;BME280;21982;49.804;24.072;2023-09-19T00:45:46;97041.59;;;16.74;73.03
35878;BME280;21982;49.804;24.072;2023-09-19T00:48:13;97085.66;;;16.95;73.08
35878;BME280;21982;49.804;24.072;2023-09-19T00:50:41;97087.97;;;17.03;72.90
35878;BME280;21982;49.804;24.072;2023-09-19T00:53:07;97080.91;;;16.85;73.07
35878;BME280;21982;49.804;24.072;2023-09-19T00:55:35;97047.06;;;16.67;73.14
35878;BME280;21982;49.804;24.072;2023-09-19T00:58:02;97090.19;;;16.94;73.00
35878;BME280;21982;49.804;24.072;2023-09-19T01:00:28;97077.19;;;16.86;72.86
35878;BME280;21982;49.804;24.072;2023-09-19T01:02:54;96996.59;;;16.36;73.07
35878;BME280;21982;49.804;24.072;2023-09-19T01:05:19;97086.13;;;16.92;73.04
35878;BME280;21982;49.804;24.072;2023-09-19T01:07:45;97059.03;;;16.77;72.96
35878;BME280;21982;49.804;24.072;2023-09-19T01:10:14;97081.25;;;16.89;73.09
35878;BME280;21982;49.804;24.072;2023-09-19T01:13:04;97080.78;;;16.92;72.82
35878;BME280;21982;49.804;24.072;2023-09-19T01:15:51;97068.47;;;16.91;72.68
35878;BME280;21982;49.804;24.072;2023-09-19T01:19:07;97071.00;;;16.86;72.48
35878;BME280;21982;49.804;24.072;2023-09-19T01:21:55;97069.38;;;16.85;72.57
35878;BME280;21982;49.804;24.072;2023-09-19T01:24:44;97067.28;;;16.87;72.06
35878;BME280;21982;49.804;24.072;2023-09-19T01:27:25;97067.97;;;16.70;72.30
35878;BME280;21982;49.804;24.072;2023-09-19T01:30:13;97066.94;;;16.83;72.44
35878;BME280;21982;49.804;24.072;2023-09-19T01:32:39;97003.09;;;16.40;72.69
35878;BME280;21982;49.804;24.072;2023-09-19T01:35:06;97049.97;;;16.78;72.42
35878;BME280;21982;49.804;24.072;2023-09-19T01:37:36;97006.00;;;16.50;72.40
35878;BME280;21982;49.804;24.072;2023-09-19T01:40:07;97057.06;;;16.84;72.40
35878;BME280;21982;49.804;24.072;2023-09-19T01:48:05;97024.16;;;16.71;72.19
35878;BME280;21982;49.804;24.072;2023-09-19T01:50:42;97009.75;;;16.61;72.34
35878;BME280;21982;49.804;24.072;2023-09-19T01:55:54;97037.53;;;16.71;72.14
35878;BME280;21982;49.804;24.072;2023-09-19T02:01:04;96956.63;;;16.18;71.90
35878;BME280;21982;49.804;24.072;2023-09-19T02:03:31;97030.44;;;16.65;71.97
35878;BME280;21982;49.804;24.072;2023-09-19T02:05:58;97037.84;;;16.63;71.79
35878;BME280;21982;49.804;24.072;2023-09-19T02:08:24;97023.09;;;16.61;72.02
35878;BME280;21982;49.804;24.072;2023-09-19T02:10:50;97032.41;;;16.58;71.85
35878;BME280;21982;49.804;24.072;2023-09-19T02:13:17;96974.63;;;16.22;71.61
35878;BME280;21982;49.804;24.072;2023-09-19T02:15:42;97012.50;;;16.42;71.74
35878;BME280;21982;49.804;24.072;2023-09-19T02:18:10;97030.06;;;16.50;71.66
35878;BME280;21982;49.804;24.072;2023-09-19T02:20:36;96987.41;;;16.20;71.59
35878;BME280;21982;49.804;24.072;2023-09-19T02:23:02;97038.78;;;16.46;71.79
35878;BME280;21982;49.804;24.072;2023-09-19T02:25:28;97006.00;;;16.27;71.37
35878;BME280;21982;49.804;24.072;2023-09-19T02:27:54;96906.16;;;15.63;71.28
35878;BME280;21982;49.804;24.072;2023-09-19T02:30:24;97022.72;;;16.34;71.41
35878;BME280;21982;49.804;24.072;2023-09-19T02:32:50;97019.38;;;16.27;nan
35878;BME280;21982;49.804;24.072;2023-09-19T02:35:16;97014.94;;;16.21;71.37
35878;BME280;21982;49.804;24.072;2023-09-19T02:37:41;96976.34;;;15.93;71.63
35878;BME280;21982;49.804;24.072;2023-09-19T02:40:07;96994.22;;;16.04;71.46
35878;BME280;21982;49.804;24.072;2023-09-19T02:42:47;97000.16;;;16.06;71.35
35878;BME280;21982;49.804;24.072;2023-09-19T02:45:15;97004.91;;;16.04;71.39
35878;BME280;21982;49.804;24.072;2023-09-19T02:47:41;96918.22;;;15.54;71.35
35878;BME280;21982;49.804;24.072;2023-09-19T02:50:07;96942.38;;;15.59;71.30
35878;BME280;21982;49.804;24.072;2023-09-19T02:52:34;96970.63;;;15.78;71.19
35878;BME280;21982;49.804;24.072;2023-09-19T02:55:00;96970.03;;;15.76;71.39
35878;BME280;21982;49.804;24.072;2023-09-19T02:57:26;96997.72;;;15.93;71.30
35878;BME280;21982;49.804;24.072;2023-09-19T02:59:52;97006.19;;;15.90;71.71
35878;BME280;21982;49.804;24.072;2023-09-19T03:02:18;96936.31;;;15.52;71.09
35878;BME280;21982;49.804;24.072;2023-09-19T03:04:43;96992.69;;;15.85;71.31
35878;BME280;21982;49.804;24.072;2023-09-19T03:07:10;96950.22;;;15.54;71.24
35878;BME280;21982;49.804;24.072;2023-09-19T03:09:36;96992.56;;;15.80;71.07
35878;BME280;21982;49.804;24.072;2023-09-19T03:12:02;96986.66;;;15.78;71.12
35878;BME280;21982;49.804;24.072;2023-09-19T03:14:29;96970.03;;;15.76;71.25
35878;BME280;21982;49.804;24.072;2023-09-19T03:17:00;96978.28;;;15.74;71.01
35878;BME280;21982;49.804;24.072;2023-09-19T03:19:26;96970.50;;;15.73;71.14
35878;BME280;21982;49.804;24.072;2023-09-19T03:21:52;96977.91;;;15.71;71.12
35878;BME280;21982;49.804;24.072;2023-09-19T03:24:18;96942.81;;;15.56;71.30
35878;BME280;21982;49.804;24.072;2023-09-19T03:26:44;96888.53;;;15.20;71.35
35878;BME280;21982;49.804;24.072;2023-09-19T03:29:10;96957.81;;;15.68;71.41
35878;BME280;21982;49.804;24.072;2023-09-19T03:31:36;96955.97;;;15.69;71.19
35878;BME280;21982;49.804;24.072;2023-09-19T03:34:02;96961.31;;;15.69;71.01
35878;BME280;21982;49.804;24.072;2023-09-19T03:36:29;96960.28;;;15.70;71.13
35878;BME280;21982;49.804;24.072;2023-09-19T03:38:55;96946.34;;;15.68;71.08
35878;BME280;21982;49.804;24.072;2023-09-19T03:41:20;96906.81;;;15.47;71.33
35878;BME280;21982;49.804;24.072;2023-09-19T03:43:46;96913.56;;;15.49;71.40
35878;BME280;21982;49.804;24.072;2023-09-19T03:46:11;96909.94;;;15.43;71.40
35878;BME280;21982;49.804;24.072;2023-09-19T03:48:40;96942.41;;;15.70;71.46
35878;BME280;21982;49.804;24.072;2023-09-19T03:51:05;96916.59;;;15.53;71.23
35878;BME280;21982;49.804;24.072;2023-09-19T03:53:30;96935.75;;;15.61;71.46
35878;BME280;21982;49.804;24.072;2023-09-19T03:55:56;96949.13;;;15.73;71.36
35878;BME280;21982;49.804;24.072;2023-09-19T03:58:22;96945.19;;;15.75;71.29
35878;BME280;21982;49.804;24.072;2023-09-19T04:00:48;96947.88;;;15.75;71.30
35878;BME280;21982;49.804;24.072;2023-09-19T04:03:15;96944.97;;;15.77;71.19
35878;BME280;21982;49.804;24.072;2023-09-19T04:05:49;96931.94;;;15.69;71.36
35878;BME280;21982;49.804;24.072;2023-09-19T04:08:14;96894.97;;;15.42;71.19
35878;BME280;21982;49.804;24.072;2023-09-19T04:10:43;96890.22;;;15.45;71.26
35878;BME280;21982;49.804;24.072;2023-09-19T04:13:11;96929.41;;;15.74;71.46
35878;BME280;21982;49.804;24.072;2023-09-19T04:15:36;96869.91;;;15.43;71.17
35878;BME280;21982;49.804;24.072;2023-09-19T04:18:03;96877.38;;;15.53;71.22
35878;BME280;21982;49.804;24.072;2023-09-19T04:20:28;96902.72;;;15.74;71.24
35878;BME280;21982;49.804;24.072;2023-09-19T04:22:54;96878.22;;;15.65;70.91
35878;BME280;21982;49.804;24.072;2023-09-19T04:25:20;96915.41;;;15.90;70.77
35878;BME280;21982;49.804;24.072;2023-09-19T04:27:45;96923.63;;;16.00;70.97
35878;BME280;21982;49.804;24.072;2023-09-19T04:30:11;96866.25;;;15.68;70.84
35878;BME280;21982;49.804;24.072;2023-09-19T04:32:40;96923.88;;;16.11;70.72
35878;BME280;21982;49.804;24.072;2023-09-19T04:35:10;96926.09;;;16.14;70.61
35878;BME280;21982;49.804;24.072;2023-09-19T04:37:37;96919.47;;;16.16;70.36
35878;BME280;21982;49.804;24.072;2023-09-19T04:40:05;96881.72;;;16.01;70.34
35878;BME280;21982;49.804;24.072;2023-09-19T04:42:31;96921.88;;;16.29;70.22
35878;BME280;21982;49.804;24.072;2023-09-19T04:44:57;96846.28;;;16.05;69.71
35878;BME280;21982;49.804;24.072;2023-09-19T04:47:22;96895.13;;;16.64;69.21
35878;BME280;21982;49.804;24.072;2023-09-19T04:49:47;96883.97;;;16.67;68.49
35878;BME280;21982;49.804;24.072;2023-09-19T04:52:13;96903.59;;;16.85;68.41
35878;BME280;21982;49.804;24.072;2023-09-19T04:54:40;96889.31;;;16.67;68.27
35878;BME280;21982;49.804;24.072;2023-09-19T04:57:09;96925.09;;;16.90;68.28
35878;BME280;21982;49.804;24.072;2023-09-19T04:59:35;96872.00;;;16.58;68.33
35878;BME280;21982;49.804;24.072;2023-09-19T05:02:01;96922.13;;;17.03;67.98
35878;BME280;21982;49.804;24.072;2023-09-19T05:04:26;96919.69;;;17.01;67.87
35878;BME280;21982;49.804;24.072;2023-09-19T05:06:52;96924.03;;;16.91;68.14
35878;BME280;21982;49.804;24.072;2023-09-19T05:09:18;96913.25;;;16.74;68.26
35878;BME280;21982;49.804;24.072;2023-09-19T05:11:45;96925.56;;;16.75;68.38
35878;BME280;21982;49.804;24.072;2023-09-19T05:14:11;96915.47;;;16.65;68.70
35878;BME280;21982;49.804;24.072;2023-09-19T05:16:37;96918.72;;;16.67;68.64
35878;BME280;21982;49.804;24.072;2023-09-19T05:19:02;96865.53;;;16.31;68.78
35878;BME280;21982;49.804;24.072;2023-09-19T05:21:27;96909.66;;;16.68;68.84
35878;BME280;21982;49.804;24.072;2023-09-19T05:23:56;96879.13;;;16.53;68.72
35878;BME280;21982;49.804;24.072;2023-09-19T05:26:22;96905.47;;;16.72;68.83
35878;BME280;21982;49.804;24.072;2023-09-19T05:28:47;96904.19;;;16.75;68.68
35878;BME280;21982;49.804;24.072;2023-09-19T05:31:15;96884.56;;;16.69;68.85
35878;BME280;21982;49.804;24.072;2023-09-19T05:33:42;96884.19;;;16.78;68.37
35878;BME280;21982;49.804;24.072;2023-09-19T05:36:07;96860.25;;;16.71;68.38
35878;BME280;21982;49.804;24.072;2023-09-19T05:38:36;96899.66;;;17.04;68.15
35878;BME280;21982;49.804;24.072;2023-09-19T05:41:02;96851.16;;;16.84;68.10
35878;BME280;21982;49.804;24.072;2023-09-19T05:43:27;96848.09;;;16.92;68.05
35878;BME280;21982;49.804;24.072;2023-09-19T05:45:52;96875.66;;;17.21;67.87
35878;BME280;21982;49.804;24.072;2023-09-19T05:48:18;96828.81;;;17.06;67.53
35878;BME280;21982;49.804;24.072;2023-09-19T05:50:44;96801.75;;;17.03;67.26
35878;BME280;21982;49.804;24.072;2023-09-19T05:53:12;96886.75;;;17.74;67.28
35878;BME280;21982;49.804;24.072;2023-09-19T05:55:39;96883.50;;;17.89;66.91
35878;BME280;21982;49.804;24.072;2023-09-19T05:58:05;96850.72;;;17.82;66.75
35878;BME280;21982;49.804;24.072;2023-09-19T06:00:30;96841.38;;;18.01;66.31
35878;BME280;21982;49.804;24.072;2023-09-19T06:02:58;96888.66;;;18.68;65.70
35878;BME280;21982;49.804;24.072;2023-09-19T06:05:25;96889.34;;;19.02;65.47
35878;BME280;21982;49.804;24.072;2023-09-19T06:07:52;96827.81;;;18.95;64.41
35878;BME280;21982;49.804;24.072;2023-09-19T06:10:18;96888.16;;;19.47;63.99
35878;BME280;21982;49.804;24.072;2023-09-19T06:12:46;96900.03;;;19.51;63.65
35878;BME280;21982;49.804;24.072;2023-09-19T06:15:15;96894.97;;;19.54;63.75
35878;BME280;21982;49.804;24.072;2023-09-19T06:17:47;96880.59;;;19.38;63.54
35878;BME280;21982;49.804;24.072;2023-09-19T06:20:13;96878.81;;;19.22;63.72
35878;BME280;21982;49.804;24.072;2023-09-19T06:22:41;96813.84;;;18.71;63.98
35878;BME280;21982;49.804;24.072;2023-09-19T06:25:07;96895.09;;;19.16;64.12
35878;BME280;21982;49.804;24.072;2023-09-19T06:27:33;96866.25;;;19.01;64.20
35878;BME280;21982;49.804;24.072;2023-09-19T06:30:00;96879.25;;;19.14;64.26
35878;BME280;21982;49.804;24.072;2023-09-19T06:32:29;96870.63;;;19.12;63.93
35878;BME280;21982;49.804;24.072;2023-09-19T06:34:54;96851.16;;;18.95;64.00
35878;BME280;21982;49.804;24.072;2023-09-19T06:37:21;96894.66;;;19.24;64.19
35878;BME280;21982;49.804;24.072;2023-09-19T06:39:47;96879.56;;;19.18;64.03
35878;BME280;21982;49.804;24.072;2023-09-19T06:42:14;96870.19;;;19.20;64.04
35878;BME280;21982;49.804;24.072;2023-09-19T06:44:42;96902.25;;;19.32;63.97
35878;BME280;21982;49.804;24.072;2023-09-19T06:47:08;96867.41;;;19.10;63.83
35878;BME280;21982;49.804;24.072;2023-09-19T06:49:35;96888.97;;;19.20;63.85
35878;BME280;21982;49.804;24.072;2023-09-19T06:52:01;96869.00;;;19.11;63.82
35878;BME280;21982;49.804;24.072;2023-09-19T06:54:27;96813.91;;;18.77;63.60
35878;BME280;21982;49.804;24.072;2023-09-19T06:56:59;96806.44;;;18.79;63.73
35878;BME280;21982;49.804;24.072;2023-09-19T06:59:25;96888.91;;;19.37;63.70
35878;BME280;21982;49.804;24.072;2023-09-19T07:01:50;96903.63;;;19.34;63.48
35878;BME280;21982;49.804;24.072;2023-09-19T07:04:16;96905.28;;;19.40;63.74
35878;BME280;21982;49.804;24.072;2023-09-19T07:06:42;96896.09;;;19.31;63.58
35878;BME280;21982;49.804;24.072;2023-09-19T07:09:08;96884.53;;;19.31;63.83
35878;BME280;21982;49.804;24.072;2023-09-19T07:11:34;96830.44;;;18.90;63.91
35878;BME280;21982;49.804;24.072;2023-09-19T07:13:59;96893.22;;;19.43;63.82
35878;BME280;21982;49.804;24.072;2023-09-19T07:16:28;96878.34;;;19.30;64.00
35878;BME280;21982;49.804;24.072;2023-09-19T07:18:56;96896.72;;;19.43;64.01
35878;BME280;21982;49.804;24.072;2023-09-19T07:21:22;96879.97;;;19.31;64.17
35878;BME280;21982;49.804;24.072;2023-09-19T07:23:48;96890.50;;;19.38;64.38
35878;BME280;21982;49.804;24.072;2023-09-19T07:26:13;96875.91;;;19.29;64.71
35878;BME280;21982;49.804;24.072;2023-09-19T07:28:38;96890.72;;;19.31;64.73
35878;BME280;21982;49.804;24.072;2023-09-19T07:31:04;96867.09;;;19.06;64.74
35878;BME280;21982;49.804;24.072;2023-09-19T07:33:30;96897.72;;;19.32;64.89
35878;BME280;21982;49.804;24.072;2023-09-19T07:35:56;96824.38;;;19.00;64.76
35878;BME280;21982;49.804;24.072;2023-09-19T07:38:21;96892.47;;;19.48;64.86
35878;BME280;21982;49.804;24.072;2023-09-19T07:40:48;96860.19;;;19.37;64.82
35878;BME280;21982;49.804;24.072;2023-09-19T07:43:14;96894.88;;;19.71;64.47
35878;BME280;21982;49.804;24.072;2023-09-19T07:45:39;96869.03;;;19.65;64.34
35878;BME280;21982;49.804;24.072;2023-09-19T07:48:05;96829.03;;;19.41;64.16
35878;BME280;21982;49.804;24.072;2023-09-19T07:50:33;96904.25;;;20.00;64.25
35878;BME280;21982;49.804;24.072;2023-09-19T07:53:02;96854.03;;;19.69;64.30
35878;BME280;21982;49.804;24.072;2023-09-19T07:55:30;96876.09;;;19.76;64.52
35878;BME280;21982;49.804;24.072;2023-09-19T07:57:55;96906.28;;;19.88;64.48
35878;BME280;21982;49.804;24.072;2023-09-19T08:00:23;96911.66;;;19.88;64.98
35878;BME280;21982;49.804;24.072;2023-09-19T08:02:48;96906.28;;;19.88;64.98
35878;BME280;21982;49.804;24.072;2023-09-19T08:05:14;96804.19;;;19.24;65.36
35878;BME280;21982;49.804;24.072;2023-09-19T08:07:45;96887.94;;;19.80;65.45
35878;BME280;21982;49.804;24.072;2023-09-19T08:10:14;96897.63;;;19.81;65.82
35878;BME280;21982;49.804;24.072;2023-09-19T08:12:42;96868.22;;;19.64;65.82
35878;BME280;21982;49.804;24.072;2023-09-19T08:15:19;96889.50;;;19.76;66.19
35878;BME280;21982;49.804;24.072;2023-09-19T08:17:46;96891.84;;;19.62;66.92
35878;BME280;21982;49.804;24.072;2023-09-19T08:20:12;96892.44;;;19.69;67.44
35878;BME280;21982;49.804;24.072;2023-09-19T08:22:49;96841.66;;;19.41;67.55
35878;BME280;21982;49.804;24.072;2023-09-19T08:25:17;96817.63;;;19.24;67.78
35878;BME280;21982;49.804;24.072;2023-09-19T08:27:47;96898.13;;;19.73;68.06
35878;BME280;21982;49.804;24.072;2023-09-19T08:30:18;96837.00;;;19.58;67.73
35878;BME280;21982;49.804;24.072;2023-09-19T08:32:45;96872.41;;;19.87;67.78
35878;BME280;21982;49.804;24.072;2023-09-19T08:35:11;96846.53;;;19.76;67.81
35878;BME280;21982;49.804;24.072;2023-09-19T08:37:36;96837.97;;;19.79;67.80
35878;BME280;21982;49.804;24.072;2023-09-19T08:40:02;96859.63;;;19.99;67.59
35878;BME280;21982;49.804;24.072;2023-09-19T08:42:28;96862.34;;;20.04;67.61
35878;BME280;21982;49.804;24.072;2023-09-19T08:44:55;96849.47;;;20.06;67.38
35878;BME280;21982;49.804;24.072;2023-09-19T08:50:39;96802.97;;;19.69;67.29
35878;BME280;21982;49.804;24.072;2023-09-19T08:53:26;96843.75;;;19.98;67.19
35878;BME280;21982;49.804;24.072;2023-09-19T08:55:53;96844.25;;;19.95;67.28
35878;BME280;21982;49.804;24.072;2023-09-19T08:58:27;96829.44;;;19.87;67.03
35878;BME280;21982;49.804;24.072;2023-09-19T09:00:57;96846.66;;;19.91;67.04
35878;BME280;21982;49.804;24.072;2023-09-19T09:03:26;96845.34;;;19.94;67.32
35878;BME280;21982;49.804;24.072;2023-09-19T09:05:51;96772.66;;;19.41;67.06
35878;BME280;21982;49.804;24.072;2023-09-19T09:08:19;96844.81;;;19.97;67.05
35878;BME280;21982;49.804;24.072;2023-09-19T09:10:47;96846.94;;;19.95;67.11
35878;BME280;21982;49.804;24.072;2023-09-19T09:13:12;96846.66;;;19.91;67.20
35878;BME280;21982;49.804;24.072;2023-09-19T09:15:41;96852.59;;;19.93;67.66
35878;BME280;21982;49.804;24.072;2023-09-19T09:18:06;96850.31;;;19.80;67.45
35878;BME280;21982;49.804;24.072;2023-09-19T09:20:32;96857.28;;;19.76;67.73
35878;BME280;21982;49.804;24.072;2023-09-19T09:22:57;96848.34;;;19.65;67.96
35878;BME280;21982;49.804;24.072;2023-09-19T09:28:20;96861.59;;;19.77;68.18
35878;BME280;21982;49.804;24.072;2023-09-19T09:30:46;96859.94;;;19.71;68.58
35878;BME280;21982;49.804;24.072;2023-09-19T09:33:13;96870.69;;;19.71;68.72
35878;BME280;21982;49.804;24.072;2023-09-19T09:35:49;96838.50;;;19.49;68.69
35878;BME280;21982;49.804;24.072;2023-09-19T09:38:20;96797.72;;;19.20;69.53
35878;BME280;21982;49.804;24.072;2023-09-19T09:40:50;96857.31;;;19.49;69.96
35878;BME280;21982;49.804;24.072;2023-09-19T09:43:39;96861.25;;;19.36;70.62
35878;BME280;21982;49.804;24.072;2023-09-19T09:46:18;96868.13;;;19.27;71.00
35878;BME280;21982;49.804;24.072;2023-09-19T09:48:58;96840.47;;;19.00;71.70
35878;BME280;21982;49.804;24.072;2023-09-19T09:51:40;96782.00;;;18.53;72.35
35878;BME280;21982;49.804;24.072;2023-09-19T09:54:13;96861.88;;;18.95;73.21
35878;BME280;21982;49.804;24.072;2023-09-19T09:57:12;96860.31;;;18.99;72.95
35878;BME280;21982;49.804;24.072;2023-09-19T09:59:46;96866.25;;;19.01;74.01
35878;BME280;21982;49.804;24.072;2023-09-19T10:02:15;96826.88;;;18.85;74.41
35878;BME280;21982;49.804;24.072;2023-09-19T10:04:45;96866.03;;;19.07;74.57
35878;BME280;21982;49.804;24.072;2023-09-19T10:07:28;96851.78;;;19.07;74.47
35878;BME280;21982;49.804;24.072;2023-09-19T10:09:59;96825.25;;;18.84;75.07
35878;BME280;21982;49.804;24.072;2023-09-19T10:12:32;96845.28;;;18.98;75.45
35878;BME280;21982;49.804;24.072;2023-09-19T10:15:03;96858.22;;;19.06;75.75
35878;BME280;21982;49.804;24.072;2023-09-19T10:17:34;96866.28;;;19.06;75.92
35878;BME280;21982;49.804;24.072;2023-09-19T10:20:04;96800.34;;;18.61;76.08
35878;BME280;21982;49.804;24.072;2023-09-19T10:22:34;96857.56;;;18.94;76.19
35878;BME280;21982;49.804;24.072;2023-09-19T10:25:04;96868.88;;;18.96;76.39
35878;BME280;21982;49.804;24.072;2023-09-19T10:27:30;96832.13;;;18.74;76.51
35878;BME280;21982;49.804;24.072;2023-09-19T10:30:06;96834.38;;;18.83;76.46
35878;BME280;21982;49.804;24.072;2023-09-19T10:32:34;96854.84;;;18.89;76.63
35878;BME280;21982;49.804;24.072;2023-09-19T10:35:01;96794.84;;;18.51;76.96
35878;BME280;21982;49.804;24.072;2023-09-19T10:37:27;96826.66;;;18.64;77.00
35878;BME280;21982;49.804;24.072;2023-09-19T10:39:56;96823.28;;;18.52;77.13
35878;BME280;21982;49.804;24.072;2023-09-19T10:42:23;96824.75;;;18.43;77.17
35878;BME280;21982;49.804;24.072;2023-09-19T10:44:53;96857.38;;;18.57;77.80
35878;BME280;21982;49.804;24.072;2023-09-19T10:47:19;96833.06;;;18.41;77.85
35878;BME280;21982;49.804;24.072;2023-09-19T10:49:46;96829.53;;;18.36;78.17
35878;BME280;21982;49.804;24.072;2023-09-19T10:52:14;96805.59;;;18.13;78.17
35878;BME280;21982;49.804;24.072;2023-09-19T10:54:47;96804.00;;;18.12;78.56
35878;BME280;21982;49.804;24.072;2023-09-19T10:57:24;96842.84;;;18.31;78.37
35878;BME280;21982;49.804;24.072;2023-09-19T11:00:22;96831.00;;;18.27;78.54
35878;BME280;21982;49.804;24.072;2023-09-19T11:05:39;96807.41;;;18.07;79.28
35878;BME280;21982;49.804;24.072;2023-09-19T11:08:07;96830.69;;;18.23;79.45
35878;BME280;21982;49.804;24.072;2023-09-19T11:10:49;96800.88;;;17.98;79.06
35878;BME280;21982;49.804;24.072;2023-09-19T11:13:29;96829.72;;;18.13;79.45
35878;BME280;21982;49.804;24.072;2023-09-19T11:26:51;96775.88;;;17.92;80.30
35878;BME280;21982;49.804;24.072;2023-09-19T11:29:28;96799.81;;;18.21;80.22
35878;BME280;21982;49.804;24.072;2023-09-19T11:31:55;96790.03;;;18.09;80.77
35878;BME280;21982;49.804;24.072;2023-09-19T11:40:10;96796.09;;;18.22;80.22
35878;BME280;21982;49.804;24.072;2023-09-19T11:42:46;96786.03;;;18.12;80.85
35878;BME280;21982;49.804;24.072;2023-09-19T11:48:29;96762.66;;;18.07;80.96
35878;BME280;21982;49.804;24.072;2023-09-19T11:50:55;96765.25;;;18.19;80.84
35878;BME280;21982;49.804;24.072;2023-09-19T11:53:22;96767.81;;;18.31;81.00
35878;BME280;21982;49.804;24.072;2023-09-19T11:55:49;96732.84;;;18.21;80.95
35878;BME280;21982;49.804;24.072;2023-09-19T11:58:15;96781.63;;;18.66;80.81
35878;BME280;21982;49.804;24.072;2023-09-19T12:00:42;96792.56;;;18.87;80.52
35878;BME280;21982;49.804;24.072;2023-09-19T12:03:11;96767.75;;;18.74;80.34
35878;BME280;21982;49.804;24.072;2023-09-19T12:05:37;96798.09;;;19.02;80.58
35878;BME280;21982;49.804;24.072;2023-09-19T12:08:03;96797.66;;;19.15;80.09
35878;BME280;21982;49.804;24.072;2023-09-19T12:10:32;96748.44;;;18.99;79.79
35878;BME280;21982;49.804;24.072;2023-09-19T12:12:58;96770.53;;;19.43;79.55
35878;BME280;21982;49.804;24.072;2023-09-19T12:15:25;96792.19;;;19.64;79.33
35878;BME280;21982;49.804;24.072;2023-09-19T12:17:59;96786.75;;;19.54;78.78
35878;BME280;21982;49.804;24.072;2023-09-19T12:20:24;96780.19;;;19.77;79.05
35878;BME280;21982;49.804;24.072;2023-09-19T12:22:50;96752.50;;;19.76;78.66
35878;BME280;21982;49.804;24.072;2023-09-19T12:25:16;96768.47;;;19.93;78.10
35878;BME280;21982;49.804;24.072;2023-09-19T12:27:47;96785.47;;;20.03;77.75
35878;BME280;21982;49.804;24.072;2023-09-19T12:30:15;96775.78;;;20.02;77.98
35878;BME280;21982;49.804;24.072;2023-09-19T12:32:43;96781.72;;;20.04;77.88
35878;BME280;21982;49.804;24.072;2023-09-19T12:35:09;96776.06;;;20.11;78.03
35878;BME280;21982;49.804;24.072;2023-09-19T12:37:44;96770.44;;;20.13;77.92
35878;BME280;21982;49.804;24.072;2023-09-19T12:40:18;96774.19;;;20.12;78.16
35878;BME280;21982;49.804;24.072;2023-09-19T12:42:48;96760.72;;;20.01;78.10
35878;BME280;21982;49.804;24.072;2023-09-19T12:45:14;96753.72;;;20.00;78.23
35878;BME280;21982;49.804;24.072;2023-09-19T12:48:20;96769.88;;;20.11;77.85
35878;BME280;21982;49.804;24.072;2023-09-19T12:51:05;96774.75;;;20.08;78.13
35878;BME280;21982;49.804;24.072;2023-09-19T12:53:36;96727.50;;;19.75;78.14
35878;BME280;21982;49.804;24.072;2023-09-19T12:56:06;96728.59;;;19.69;78.46
35878;BME280;21982;49.804;24.072;2023-09-19T12:59:15;96785.41;;;19.93;78.54
35878;BME280;21982;49.804;24.072;2023-09-19T13:01:24;96778.59;;;19.81;78.87
35878;BME280;21982;49.804;24.072;2023-09-19T13:06:52;96773.16;;;19.65;79.32
35878;BME280;21982;49.804;24.072;2023-09-19T13:09:22;96716.78;;;19.33;79.28
35878;BME280;21982;49.804;24.072;2023-09-19T13:11:50;96762.03;;;19.52;79.83
35878;BME280;21982;49.804;24.072;2023-09-19T13:14:23;96782.56;;;19.68;79.57
35878;BME280;21982;49.804;24.072;2023-09-19T13:17:03;96771.75;;;19.58;79.80
35878;BME280;21982;49.804;24.072;2023-09-19T13:25:01;96737.13;;;19.29;80.05
35878;BME280;21982;49.804;24.072;2023-09-19T13:27:28;96795.44;;;19.66;80.24
35878;BME280;21982;49.804;24.072;2023-09-19T13:29:53;96754.66;;;19.42;80.51
35878;BME280;21982;49.804;24.072;2023-09-19T13:32:19;96788.97;;;19.62;80.41
35878;BME280;21982;49.804;24.072;2023-09-19T13:34:44;96798.19;;;19.76;80.71
35878;BME280;21982;49.804;24.072;2023-09-19T13:37:09;96792.28;;;19.74;80.52
35878;BME280;21982;49.804;24.072;2023-09-19T13:39:35;96803.59;;;19.81;80.77
35878;BME280;21982;49.804;24.072;2023-09-19T13:42:01;96791.47;;;19.73;80.84
35878;BME280;21982;49.804;24.072;2023-09-19T13:44:28;96800.34;;;19.79;80.97
35878;BME280;21982;49.804;24.072;2023-09-19T13:46:55;96778.81;;;19.69;81.21